sensor_id;sensor_type;location;lat;lon;timestamp;pressure;altitude;pressure_sealevel;temperature;humidity
51147;BME280;37207;53.060;18.726;2023-06-22T00:02:25;100889.45;;;19.46;85.13
51147;BME280;37207;53.060;18.726;2023-06-22T00:04:51;100891.88;;;19.44;85.18
51147;BME280;37207;53.060;18.726;2023-06-22T00:07:18;100896.70;;;19.42;85.17
51147;BME280;37207;53.060;18.726;2023-06-22T00:09:44;100900.23;;;19.40;85.20
51147;BME280;37207;53.060;18.726;2023-06-22T00:12:11;100895.07;;;19.36;85.13
51147;BME280;37207;53.060;18.726;2023-06-22T00:14:37;100886.88;;;19.27;84.76
51147;BME280;37207;53.060;18.726;2023-06-22T00:17:04;100890.66;;;19.19;84.87
51147;BME280;37207;53.060;18.726;2023-06-22T00:19:31;100895.38;;;19.15;85.15
51147;BME280;37207;53.060;18.726;2023-06-22T00:21:58;100899.94;;;19.13;85.40
51147;BME280;37207;53.060;18.726;2023-06-22T00:24:26;100907.49;;;19.11;85.38
51147;BME280;37207;53.060;18.726;2023-06-22T00:26:53;100908.95;;;19.09;85.31
51147;BME280;37207;53.060;18.726;2023-06-22T00:29:19;100907.11;;;19.05;85.32
51147;BME280;37207;53.060;18.726;2023-06-22T00:31:46;100908.88;;;19.01;85.30
51147;BME280;37207;53.060;18.726;2023-06-22T00:34:12;100916.00;;;18.98;85.56
51147;BME280;37207;53.060;18.726;2023-06-22T00:36:39;100922.39;;;18.96;85.66
51147;BME280;37207;53.060;18.726;2023-06-22T00:39:07;100921.99;;;18.95;85.60
51147;BME280;37207;53.060;18.726;2023-06-22T00:41:34;100921.98;;;18.94;85.49
51147;BME280;37207;53.060;18.726;2023-06-22T00:44:00;100919.90;;;18.93;85.48
51147;BME280;37207;53.060;18.726;2023-06-22T00:46:27;100914.21;;;18.92;85.51
51147;BME280;37207;53.060;18.726;2023-06-22T00:48:54;100914.22;;;18.92;85.57
51147;BME280;37207;53.060;18.726;2023-06-22T00:51:23;100914.15;;;18.90;85.64
51147;BME280;37207;53.060;18.726;2023-06-22T00:53:51;100919.95;;;18.89;85.74
51147;BME280;37207;53.060;18.726;2023-06-22T00:56:19;100917.20;;;18.90;85.84
51147;BME280;37207;53.060;18.726;2023-06-22T00:58:51;100914.10;;;18.90;85.80
51147;BME280;37207;53.060;18.726;2023-06-22T01:01:19;100913.95;;;18.90;85.75
51147;BME280;37207;53.060;18.726;2023-06-22T01:03:50;100912.29;;;18.88;85.74
51147;BME280;37207;53.060;18.726;2023-06-22T01:06:22;100909.52;;;18.87;85.66
51147;BME280;37207;53.060;18.726;2023-06-22T01:09:20;100910.73;;;18.86;85.63
51147;BME280;37207;53.060;18.726;2023-06-22T01:11:54;100916.61;;;18.84;85.64
51147;BME280;37207;53.060;18.726;2023-06-22T01:15:03;100913.64;;;18.83;85.64
51147;BME280;37207;53.060;18.726;2023-06-22T01:17:21;100918.36;;;18.80;85.67
51147;BME280;37207;53.060;18.726;2023-06-22T01:19:51;100908.97;;;18.78;85.65
51147;BME280;37207;53.060;18.726;2023-06-22T01:22:25;100906.10;;;18.76;85.62
51147;BME280;37207;53.060;18.726;2023-06-22T01:25:13;100902.67;;;18.74;85.61
51147;BME280;37207;53.060;18.726;2023-06-22T01:30:43;100898.31;;;18.69;85.57
51147;BME280;37207;53.060;18.726;2023-06-22T01:33:13;100897.92;;;18.68;85.54
51147;BME280;37207;53.060;18.726;2023-06-22T01:35:40;100892.14;;;18.67;85.52
51147;BME280;37207;53.060;18.726;2023-06-22T01:38:08;100897.41;;;18.65;85.54
51147;BME280;37207;53.060;18.726;2023-06-22T01:40:35;100895.45;;;18.63;85.56
51147;BME280;37207;53.060;18.726;2023-06-22T01:43:03;100901.69;;;18.61;85.58
51147;BME280;37207;53.060;18.726;2023-06-22T01:45:30;100906.29;;;18.59;85.57
51147;BME280;37207;53.060;18.726;2023-06-22T01:47:57;100905.31;;;18.55;85.56
51147;BME280;37207;53.060;18.726;2023-06-22T01:50:24;100905.73;;;18.52;85.61
51147;BME280;37207;53.060;18.726;2023-06-22T01:52:51;100910.55;;;18.50;85.67
51147;BME280;37207;53.060;18.726;2023-06-22T01:55:17;100911.95;;;18.48;85.81
51147;BME280;37207;53.060;18.726;2023-06-22T01:57:44;100910.52;;;18.45;85.73
51147;BME280;37207;53.060;18.726;2023-06-22T02:00:14;100913.31;;;18.42;85.87
51147;BME280;37207;53.060;18.726;2023-06-22T02:02:56;100914.52;;;18.39;85.88
51147;BME280;37207;53.060;18.726;2023-06-22T02:05:31;100913.93;;;18.38;86.05
51147;BME280;37207;53.060;18.726;2023-06-22T02:08:20;100913.04;;;18.34;86.00
51147;BME280;37207;53.060;18.726;2023-06-22T02:10:49;100914.77;;;18.31;86.10
51147;BME280;37207;53.060;18.726;2023-06-22T02:13:17;100911.55;;;18.29;86.16
51147;BME280;37207;53.060;18.726;2023-06-22T02:15:45;100909.30;;;18.26;86.09
51147;BME280;37207;53.060;18.726;2023-06-22T02:18:12;100915.54;;;18.23;86.14
51147;BME280;37207;53.060;18.726;2023-06-22T02:20:40;100916.84;;;18.21;86.13
51147;BME280;37207;53.060;18.726;2023-06-22T02:23:06;100917.02;;;18.19;86.18
51147;BME280;37207;53.060;18.726;2023-06-22T02:25:35;100915.90;;;18.18;86.15
51147;BME280;37207;53.060;18.726;2023-06-22T02:28:02;100916.02;;;18.16;86.13
51147;BME280;37207;53.060;18.726;2023-06-22T02:30:29;100920.35;;;18.15;86.17
51147;BME280;37207;53.060;18.726;2023-06-22T02:32:56;100924.50;;;18.13;86.08
51147;BME280;37207;53.060;18.726;2023-06-22T02:35:28;100926.35;;;18.11;86.02
51147;BME280;37207;53.060;18.726;2023-06-22T02:37:59;100928.02;;;18.08;86.04
51147;BME280;37207;53.060;18.726;2023-06-22T02:40:27;100934.16;;;18.05;85.98
51147;BME280;37207;53.060;18.726;2023-06-22T02:42:53;100929.85;;;17.98;86.04
51147;BME280;37207;53.060;18.726;2023-06-22T02:45:20;100926.09;;;17.95;86.21
51147;BME280;37207;53.060;18.726;2023-06-22T02:47:47;100928.70;;;17.92;86.23
51147;BME280;37207;53.060;18.726;2023-06-22T02:50:17;100937.32;;;17.89;86.41
51147;BME280;37207;53.060;18.726;2023-06-22T02:52:44;100940.81;;;17.87;86.44
51147;BME280;37207;53.060;18.726;2023-06-22T02:55:11;100945.45;;;17.86;86.56
51147;BME280;37207;53.060;18.726;2023-06-22T02:57:38;100949.74;;;17.84;86.72
51147;BME280;37207;53.060;18.726;2023-06-22T03:00:12;100951.56;;;17.83;86.71
51147;BME280;37207;53.060;18.726;2023-06-22T03:02:44;100953.19;;;17.82;86.71
51147;BME280;37207;53.060;18.726;2023-06-22T03:05:12;100953.35;;;17.81;86.82
51147;BME280;37207;53.060;18.726;2023-06-22T03:07:41;100954.63;;;17.80;86.73
51147;BME280;37207;53.060;18.726;2023-06-22T03:10:09;100959.92;;;17.80;86.68
51147;BME280;37207;53.060;18.726;2023-06-22T03:12:40;100957.38;;;17.80;86.75
51147;BME280;37207;53.060;18.726;2023-06-22T03:15:12;100959.11;;;17.79;86.63
51147;BME280;37207;53.060;18.726;2023-06-22T03:17:39;100962.55;;;17.81;86.59
51147;BME280;37207;53.060;18.726;2023-06-22T03:20:08;100967.82;;;17.82;86.59
51147;BME280;37207;53.060;18.726;2023-06-22T03:22:36;100965.80;;;17.81;86.64
51147;BME280;37207;53.060;18.726;2023-06-22T03:25:04;100962.88;;;17.83;86.73
51147;BME280;37207;53.060;18.726;2023-06-22T03:27:30;100967.77;;;17.84;86.63
51147;BME280;37207;53.060;18.726;2023-06-22T03:29:57;100966.23;;;17.86;86.64
51147;BME280;37207;53.060;18.726;2023-06-22T03:32:24;100971.17;;;17.88;86.52
51147;BME280;37207;53.060;18.726;2023-06-22T03:34:51;100976.45;;;17.89;86.43
51147;BME280;37207;53.060;18.726;2023-06-22T03:37:18;100976.08;;;17.91;86.58
51147;BME280;37207;53.060;18.726;2023-06-22T03:39:44;100980.31;;;17.94;86.51
51147;BME280;37207;53.060;18.726;2023-06-22T03:42:12;100980.44;;;17.96;86.47
51147;BME280;37207;53.060;18.726;2023-06-22T03:44:40;100981.59;;;17.98;86.32
51147;BME280;37207;53.060;18.726;2023-06-22T03:47:06;100979.60;;;17.98;86.35
51147;BME280;37207;53.060;18.726;2023-06-22T03:49:34;100983.56;;;18.01;86.33
51147;BME280;37207;53.060;18.726;2023-06-22T03:52:02;100990.13;;;18.04;86.28
51147;BME280;37207;53.060;18.726;2023-06-22T03:54:29;100986.39;;;18.05;86.26
51147;BME280;37207;53.060;18.726;2023-06-22T03:56:57;100989.30;;;18.09;86.29
51147;BME280;37207;53.060;18.726;2023-06-22T03:59:24;100990.29;;;18.12;86.08
51147;BME280;37207;53.060;18.726;2023-06-22T04:01:51;100989.66;;;18.13;86.09
51147;BME280;37207;53.060;18.726;2023-06-22T04:04:18;100992.27;;;18.15;86.09
51147;BME280;37207;53.060;18.726;2023-06-22T04:06:44;100991.40;;;18.17;86.03
51147;BME280;37207;53.060;18.726;2023-06-22T04:09:11;100991.63;;;18.18;86.04
51147;BME280;37207;53.060;18.726;2023-06-22T04:11:38;100997.17;;;18.20;85.92
51147;BME280;37207;53.060;18.726;2023-06-22T04:14:05;101002.50;;;18.21;85.84
51147;BME280;37207;53.060;18.726;2023-06-22T04:16:31;101006.39;;;18.23;85.90
51147;BME280;37207;53.060;18.726;2023-06-22T04:18:58;101010.48;;;18.25;85.86
51147;BME280;37207;53.060;18.726;2023-06-22T04:21:24;101009.20;;;18.26;85.83
51147;BME280;37207;53.060;18.726;2023-06-22T04:23:51;101009.10;;;18.26;85.73
51147;BME280;37207;53.060;18.726;2023-06-22T04:26:17;101014.43;;;18.26;85.69
51147;BME280;37207;53.060;18.726;2023-06-22T04:28:47;101012.66;;;18.27;85.64
51147;BME280;37207;53.060;18.726;2023-06-22T04:31:18;101012.31;;;18.30;85.75
51147;BME280;37207;53.060;18.726;2023-06-22T04:33:47;101013.48;;;18.33;85.59
51147;BME280;37207;53.060;18.726;2023-06-22T04:36:13;101011.30;;;18.36;85.68
51147;BME280;37207;53.060;18.726;2023-06-22T04:38:40;101012.11;;;18.39;85.58
51147;BME280;37207;53.060;18.726;2023-06-22T04:41:07;101014.41;;;18.42;85.59
51147;BME280;37207;53.060;18.726;2023-06-22T04:43:33;101022.73;;;18.44;85.57
51147;BME280;37207;53.060;18.726;2023-06-22T04:46:00;101019.69;;;18.47;85.45
51147;BME280;37207;53.060;18.726;2023-06-22T04:48:29;101019.67;;;18.48;85.33
51147;BME280;37207;53.060;18.726;2023-06-22T04:50:59;101018.58;;;18.51;85.32
51147;BME280;37207;53.060;18.726;2023-06-22T04:53:31;101027.02;;;18.57;85.43
51147;BME280;37207;53.060;18.726;2023-06-22T04:55:58;101024.84;;;18.62;85.42
51147;BME280;37207;53.060;18.726;2023-06-22T04:58:24;101020.44;;;18.67;85.19
51147;BME280;37207;53.060;18.726;2023-06-22T05:00:54;101016.07;;;18.72;85.07
51147;BME280;37207;53.060;18.726;2023-06-22T05:03:25;101013.58;;;18.79;85.04
51147;BME280;37207;53.060;18.726;2023-06-22T05:05:52;101008.73;;;18.85;84.74
51147;BME280;37207;53.060;18.726;2023-06-22T05:08:20;101010.91;;;18.89;84.75
51147;BME280;37207;53.060;18.726;2023-06-22T05:10:46;101011.43;;;18.98;84.77
51147;BME280;37207;53.060;18.726;2023-06-22T05:13:13;101019.95;;;19.16;84.52
51147;BME280;37207;53.060;18.726;2023-06-22T05:15:39;101018.37;;;19.35;84.34
51147;BME280;37207;53.060;18.726;2023-06-22T05:18:06;101017.46;;;19.58;84.36
51147;BME280;37207;53.060;18.726;2023-06-22T05:20:33;101015.92;;;19.79;84.48
51147;BME280;37207;53.060;18.726;2023-06-22T05:23:02;101014.36;;;19.96;84.37
51147;BME280;37207;53.060;18.726;2023-06-22T05:25:29;101017.45;;;20.08;83.65
51147;BME280;37207;53.060;18.726;2023-06-22T05:27:56;101018.66;;;20.12;82.72
51147;BME280;37207;53.060;18.726;2023-06-22T05:30:23;101025.52;;;20.13;82.37
51147;BME280;37207;53.060;18.726;2023-06-22T05:32:50;101030.73;;;20.12;81.92
51147;BME280;37207;53.060;18.726;2023-06-22T05:35:19;101029.05;;;20.09;81.86
51147;BME280;37207;53.060;18.726;2023-06-22T05:37:45;101032.39;;;20.10;81.98
51147;BME280;37207;53.060;18.726;2023-06-22T05:40:12;101036.17;;;20.15;81.94
51147;BME280;37207;53.060;18.726;2023-06-22T05:42:38;101051.30;;;20.17;81.52
51147;BME280;37207;53.060;18.726;2023-06-22T05:45:06;101058.14;;;20.16;81.48
51147;BME280;37207;53.060;18.726;2023-06-22T05:47:32;101064.21;;;20.18;81.41
51147;BME280;37207;53.060;18.726;2023-06-22T05:49:59;101062.09;;;20.22;81.39
51147;BME280;37207;53.060;18.726;2023-06-22T05:52:25;101055.48;;;20.28;81.34
51147;BME280;37207;53.060;18.726;2023-06-22T05:54:52;101054.86;;;20.41;81.32
51147;BME280;37207;53.060;18.726;2023-06-22T05:57:18;101058.67;;;20.56;81.36
51147;BME280;37207;53.060;18.726;2023-06-22T05:59:45;101061.62;;;20.73;81.31
51147;BME280;37207;53.060;18.726;2023-06-22T06:02:11;101059.21;;;20.88;81.08
51147;BME280;37207;53.060;18.726;2023-06-22T06:04:38;101060.77;;;21.06;81.16
51147;BME280;37207;53.060;18.726;2023-06-22T06:07:05;101063.33;;;21.20;80.41
51147;BME280;37207;53.060;18.726;2023-06-22T06:09:31;101064.60;;;21.25;79.52
51147;BME280;37207;53.060;18.726;2023-06-22T06:11:58;101064.36;;;21.24;78.82
51147;BME280;37207;53.060;18.726;2023-06-22T06:14:24;101065.52;;;21.21;79.02
51147;BME280;37207;53.060;18.726;2023-06-22T06:16:51;101062.45;;;21.15;78.39
51147;BME280;37207;53.060;18.726;2023-06-22T06:19:17;101057.20;;;21.08;78.32
51147;BME280;37207;53.060;18.726;2023-06-22T06:21:44;101057.77;;;21.05;78.59
51147;BME280;37207;53.060;18.726;2023-06-22T06:24:11;101055.44;;;21.04;78.72
51147;BME280;37207;53.060;18.726;2023-06-22T06:26:38;101051.31;;;21.04;78.81
51147;BME280;37207;53.060;18.726;2023-06-22T06:29:04;101052.18;;;21.08;79.07
51147;BME280;37207;53.060;18.726;2023-06-22T06:31:31;101048.52;;;21.13;78.91
51147;BME280;37207;53.060;18.726;2023-06-22T06:33:57;101041.19;;;21.19;78.89
51147;BME280;37207;53.060;18.726;2023-06-22T06:36:24;101046.20;;;21.26;78.68
51147;BME280;37207;53.060;18.726;2023-06-22T06:38:51;101048.66;;;21.35;79.13
51147;BME280;37207;53.060;18.726;2023-06-22T06:41:18;101048.55;;;21.45;79.08
51147;BME280;37207;53.060;18.726;2023-06-22T06:43:45;101045.45;;;21.53;78.46
51147;BME280;37207;53.060;18.726;2023-06-22T06:46:12;101040.91;;;21.61;78.09
51147;BME280;37207;53.060;18.726;2023-06-22T06:48:38;101039.90;;;21.70;77.89
51147;BME280;37207;53.060;18.726;2023-06-22T06:51:06;101038.61;;;21.78;77.50
51147;BME280;37207;53.060;18.726;2023-06-22T06:53:37;101041.39;;;21.88;77.30
51147;BME280;37207;53.060;18.726;2023-06-22T06:56:04;101049.25;;;21.98;76.34
51147;BME280;37207;53.060;18.726;2023-06-22T06:58:31;101059.14;;;22.06;76.88
51147;BME280;37207;53.060;18.726;2023-06-22T07:00:58;101061.35;;;22.15;76.34
51147;BME280;37207;53.060;18.726;2023-06-22T07:03:24;101052.65;;;22.24;75.74
51147;BME280;37207;53.060;18.726;2023-06-22T07:05:51;101055.47;;;22.35;75.44
51147;BME280;37207;53.060;18.726;2023-06-22T07:08:18;101055.70;;;22.50;75.49
51147;BME280;37207;53.060;18.726;2023-06-22T07:10:44;101055.96;;;22.64;74.49
51147;BME280;37207;53.060;18.726;2023-06-22T07:13:11;101048.82;;;22.77;73.86
51147;BME280;37207;53.060;18.726;2023-06-22T07:15:37;101048.82;;;22.88;73.27
51147;BME280;37207;53.060;18.726;2023-06-22T07:18:04;101047.77;;;23.01;72.83
51147;BME280;37207;53.060;18.726;2023-06-22T07:20:31;101046.17;;;23.14;72.28
51147;BME280;37207;53.060;18.726;2023-06-22T07:22:57;101046.16;;;23.33;72.74
51147;BME280;37207;53.060;18.726;2023-06-22T07:25:24;101053.67;;;23.50;71.40
51147;BME280;37207;53.060;18.726;2023-06-22T07:28:02;101048.43;;;23.62;70.77
51147;BME280;37207;53.060;18.726;2023-06-22T07:30:30;101050.63;;;23.77;70.68
51147;BME280;37207;53.060;18.726;2023-06-22T07:32:57;101054.21;;;23.98;70.78
51147;BME280;37207;53.060;18.726;2023-06-22T07:35:24;101052.08;;;24.17;69.80
51147;BME280;37207;53.060;18.726;2023-06-22T07:37:51;101054.30;;;24.35;69.48
51147;BME280;37207;53.060;18.726;2023-06-22T07:40:17;101058.86;;;24.56;69.51
51147;BME280;37207;53.060;18.726;2023-06-22T07:42:44;101059.27;;;24.76;68.96
51147;BME280;37207;53.060;18.726;2023-06-22T07:45:11;101059.68;;;24.96;68.27
51147;BME280;37207;53.060;18.726;2023-06-22T07:47:37;101057.41;;;25.17;67.22
51147;BME280;37207;53.060;18.726;2023-06-22T07:50:04;101065.47;;;25.30;65.68
51147;BME280;37207;53.060;18.726;2023-06-22T07:52:31;101068.16;;;25.32;63.91
51147;BME280;37207;53.060;18.726;2023-06-22T07:54:58;101071.89;;;25.40;63.95
51147;BME280;37207;53.060;18.726;2023-06-22T07:57:25;101072.02;;;25.48;64.70
51147;BME280;37207;53.060;18.726;2023-06-22T07:59:59;101074.61;;;25.72;64.17
51147;BME280;37207;53.060;18.726;2023-06-22T08:02:26;101075.87;;;25.92;63.25
51147;BME280;37207;53.060;18.726;2023-06-22T08:04:53;101073.96;;;26.04;61.16
51147;BME280;37207;53.060;18.726;2023-06-22T08:07:19;101079.05;;;26.14;60.57
51147;BME280;37207;53.060;18.726;2023-06-22T08:09:47;101080.29;;;26.24;60.36
51147;BME280;37207;53.060;18.726;2023-06-22T08:12:15;101080.05;;;26.42;59.96
51147;BME280;37207;53.060;18.726;2023-06-22T08:14:42;101084.40;;;26.57;58.73
51147;BME280;37207;53.060;18.726;2023-06-22T08:17:13;101084.70;;;26.64;57.35
51147;BME280;37207;53.060;18.726;2023-06-22T08:19:39;101086.60;;;26.76;58.19
51147;BME280;37207;53.060;18.726;2023-06-22T08:22:06;101086.67;;;26.92;57.64
51147;BME280;37207;53.060;18.726;2023-06-22T08:24:32;101089.91;;;27.06;57.02
51147;BME280;37207;53.060;18.726;2023-06-22T08:26:59;101095.29;;;27.16;55.75
51147;BME280;37207;53.060;18.726;2023-06-22T08:29:26;101093.20;;;27.22;55.03
51147;BME280;37207;53.060;18.726;2023-06-22T08:31:52;101091.77;;;27.30;54.52
51147;BME280;37207;53.060;18.726;2023-06-22T08:34:19;101092.02;;;27.33;54.24
51147;BME280;37207;53.060;18.726;2023-06-22T08:36:54;101090.58;;;27.40;54.57
51147;BME280;37207;53.060;18.726;2023-06-22T08:39:21;101094.65;;;27.51;54.61
51147;BME280;37207;53.060;18.726;2023-06-22T08:41:48;101093.63;;;27.67;54.98
51147;BME280;37207;53.060;18.726;2023-06-22T08:44:18;101092.39;;;27.87;54.84
51147;BME280;37207;53.060;18.726;2023-06-22T08:46:44;101092.50;;;27.92;53.25
51147;BME280;37207;53.060;18.726;2023-06-22T08:49:11;101090.65;;;27.88;53.43
51147;BME280;37207;53.060;18.726;2023-06-22T08:51:37;101094.43;;;27.97;54.21
51147;BME280;37207;53.060;18.726;2023-06-22T08:54:04;101093.80;;;28.16;53.93
51147;BME280;37207;53.060;18.726;2023-06-22T08:56:31;101089.89;;;28.24;53.50
51147;BME280;37207;53.060;18.726;2023-06-22T08:58:58;101090.67;;;28.34;53.48
51147;BME280;37207;53.060;18.726;2023-06-22T09:01:24;101091.59;;;28.44;51.87
51147;BME280;37207;53.060;18.726;2023-06-22T09:03:51;101096.83;;;28.49;51.74
51147;BME280;37207;53.060;18.726;2023-06-22T09:06:22;101096.83;;;28.59;51.81
51147;BME280;37207;53.060;18.726;2023-06-22T09:08:48;101094.84;;;28.69;51.15
51147;BME280;37207;53.060;18.726;2023-06-22T09:11:15;101098.39;;;28.79;50.79
51147;BME280;37207;53.060;18.726;2023-06-22T09:13:42;101093.70;;;28.93;50.64
51147;BME280;37207;53.060;18.726;2023-06-22T09:16:09;101092.06;;;29.14;50.53
51147;BME280;37207;53.060;18.726;2023-06-22T09:18:35;101093.44;;;29.53;49.07
51147;BME280;37207;53.060;18.726;2023-06-22T09:21:02;101098.34;;;30.05;48.75
51147;BME280;37207;53.060;18.726;2023-06-22T09:23:29;101095.77;;;30.87;47.64
51147;BME280;37207;53.060;18.726;2023-06-22T09:25:56;101093.64;;;31.58;45.40
51147;BME280;37207;53.060;18.726;2023-06-22T09:28:22;101090.08;;;32.24;44.50
51147;BME280;37207;53.060;18.726;2023-06-22T09:30:49;101093.25;;;32.92;43.20
51147;BME280;37207;53.060;18.726;2023-06-22T09:33:16;101089.20;;;33.40;42.45
51147;BME280;37207;53.060;18.726;2023-06-22T09:35:42;101084.17;;;33.32;42.56
51147;BME280;37207;53.060;18.726;2023-06-22T09:38:09;101079.13;;;32.90;42.59
51147;BME280;37207;53.060;18.726;2023-06-22T09:40:35;101075.22;;;32.68;41.69
51147;BME280;37207;53.060;18.726;2023-06-22T09:43:06;101079.31;;;32.44;41.79
51147;BME280;37207;53.060;18.726;2023-06-22T09:45:32;101075.02;;;32.39;42.56
51147;BME280;37207;53.060;18.726;2023-06-22T09:47:59;101064.30;;;32.39;42.70
51147;BME280;37207;53.060;18.726;2023-06-22T09:50:25;101066.41;;;32.38;41.86
51147;BME280;37207;53.060;18.726;2023-06-22T09:52:52;101067.95;;;32.40;42.31
51147;BME280;37207;53.060;18.726;2023-06-22T09:55:21;101059.98;;;32.51;42.48
51147;BME280;37207;53.060;18.726;2023-06-22T09:57:48;101060.04;;;32.52;42.28
51147;BME280;37207;53.060;18.726;2023-06-22T10:00:16;101054.44;;;32.52;41.69
51147;BME280;37207;53.060;18.726;2023-06-22T10:02:43;101056.83;;;32.46;42.13
51147;BME280;37207;53.060;18.726;2023-06-22T10:05:10;101057.55;;;32.51;42.09
51147;BME280;37207;53.060;18.726;2023-06-22T10:07:37;101059.41;;;32.46;41.53
51147;BME280;37207;53.060;18.726;2023-06-22T10:10:11;101059.60;;;32.27;41.33
51147;BME280;37207;53.060;18.726;2023-06-22T10:12:45;101062.13;;;32.25;41.33
51147;BME280;37207;53.060;18.726;2023-06-22T10:15:12;101062.52;;;32.22;41.11
51147;BME280;37207;53.060;18.726;2023-06-22T10:17:39;101060.86;;;32.18;41.70
51147;BME280;37207;53.060;18.726;2023-06-22T10:20:07;101065.52;;;32.19;41.53
51147;BME280;37207;53.060;18.726;2023-06-22T10:22:41;101059.41;;;32.20;41.02
51147;BME280;37207;53.060;18.726;2023-06-22T10:25:08;101060.86;;;32.21;41.05
51147;BME280;37207;53.060;18.726;2023-06-22T10:27:35;101067.56;;;32.33;40.71
51147;BME280;37207;53.060;18.726;2023-06-22T10:30:02;101069.89;;;32.47;40.36
51147;BME280;37207;53.060;18.726;2023-06-22T10:32:28;101075.10;;;32.53;39.57
51147;BME280;37207;53.060;18.726;2023-06-22T10:34:55;101071.23;;;32.61;39.63
51147;BME280;37207;53.060;18.726;2023-06-22T10:37:22;101066.45;;;32.75;39.64
51147;BME280;37207;53.060;18.726;2023-06-22T10:39:49;101064.19;;;32.97;40.28
51147;BME280;37207;53.060;18.726;2023-06-22T10:42:15;101060.83;;;33.23;39.56
51147;BME280;37207;53.060;18.726;2023-06-22T10:44:42;101059.92;;;33.33;38.62
51147;BME280;37207;53.060;18.726;2023-06-22T10:47:10;101060.02;;;33.37;38.62
51147;BME280;37207;53.060;18.726;2023-06-22T10:49:41;101063.33;;;33.55;37.71
51147;BME280;37207;53.060;18.726;2023-06-22T10:52:08;101057.22;;;33.90;37.75
51147;BME280;37207;53.060;18.726;2023-06-22T10:54:35;101048.64;;;34.32;37.25
51147;BME280;37207;53.060;18.726;2023-06-22T10:57:03;101045.56;;;34.84;36.02
51147;BME280;37207;53.060;18.726;2023-06-22T10:59:29;101040.35;;;35.34;35.37
51147;BME280;37207;53.060;18.726;2023-06-22T11:01:56;101040.27;;;35.87;34.84
51147;BME280;37207;53.060;18.726;2023-06-22T11:04:24;101038.08;;;36.41;33.99
51147;BME280;37207;53.060;18.726;2023-06-22T11:06:51;101038.55;;;36.87;33.92
51147;BME280;37207;53.060;18.726;2023-06-22T11:09:17;101035.98;;;37.28;32.85
51147;BME280;37207;53.060;18.726;2023-06-22T11:11:47;101032.20;;;37.66;32.78
51147;BME280;37207;53.060;18.726;2023-06-22T11:14:14;101038.17;;;38.07;32.25
51147;BME280;37207;53.060;18.726;2023-06-22T11:16:41;101035.20;;;38.37;31.09
51147;BME280;37207;53.060;18.726;2023-06-22T11:19:07;101030.36;;;38.58;30.42
51147;BME280;37207;53.060;18.726;2023-06-22T11:21:34;101027.77;;;38.63;30.03
51147;BME280;37207;53.060;18.726;2023-06-22T11:24:00;101024.37;;;38.81;30.36
51147;BME280;37207;53.060;18.726;2023-06-22T11:26:27;101026.39;;;38.96;30.27
51147;BME280;37207;53.060;18.726;2023-06-22T11:28:54;101027.34;;;39.05;29.51
51147;BME280;37207;53.060;18.726;2023-06-22T11:31:20;101026.88;;;39.04;29.57
51147;BME280;37207;53.060;18.726;2023-06-22T11:33:47;101024.71;;;39.09;29.32
51147;BME280;37207;53.060;18.726;2023-06-22T11:36:14;101028.41;;;39.07;29.46
51147;BME280;37207;53.060;18.726;2023-06-22T11:38:42;101023.21;;;39.02;29.41
51147;BME280;37207;53.060;18.726;2023-06-22T11:41:10;101028.44;;;38.82;29.46
51147;BME280;37207;53.060;18.726;2023-06-22T11:43:36;101030.52;;;38.59;29.82
51147;BME280;37207;53.060;18.726;2023-06-22T11:46:04;101029.68;;;38.36;30.26
51147;BME280;37207;53.060;18.726;2023-06-22T11:48:30;101028.39;;;38.08;29.81
51147;BME280;37207;53.060;18.726;2023-06-22T11:50:57;101023.33;;;37.63;29.99
51147;BME280;37207;53.060;18.726;2023-06-22T11:53:25;101027.64;;;37.33;30.17
51147;BME280;37207;53.060;18.726;2023-06-22T11:55:52;101028.44;;;37.07;29.98
51147;BME280;37207;53.060;18.726;2023-06-22T11:58:22;101025.15;;;36.79;30.35
51147;BME280;37207;53.060;18.726;2023-06-22T12:00:49;101027.60;;;36.60;30.62
51147;BME280;37207;53.060;18.726;2023-06-22T12:03:16;101024.91;;;36.39;30.96
51147;BME280;37207;53.060;18.726;2023-06-22T12:05:43;101025.91;;;36.31;30.45
51147;BME280;37207;53.060;18.726;2023-06-22T12:08:09;101019.16;;;36.13;31.05
51147;BME280;37207;53.060;18.726;2023-06-22T12:10:36;101012.81;;;36.09;31.39
51147;BME280;37207;53.060;18.726;2023-06-22T12:13:02;101010.75;;;36.15;32.33
51147;BME280;37207;53.060;18.726;2023-06-22T12:15:29;101015.27;;;36.27;31.93
51147;BME280;37207;53.060;18.726;2023-06-22T12:17:55;101011.47;;;36.11;31.07
51147;BME280;37207;53.060;18.726;2023-06-22T12:20:22;101007.09;;;35.91;31.36
51147;BME280;37207;53.060;18.726;2023-06-22T12:22:48;101003.19;;;35.76;31.81
51147;BME280;37207;53.060;18.726;2023-06-22T12:25:17;101004.16;;;35.69;31.39
51147;BME280;37207;53.060;18.726;2023-06-22T12:27:44;101008.08;;;35.49;30.05
51147;BME280;37207;53.060;18.726;2023-06-22T12:30:10;101008.65;;;35.22;30.79
51147;BME280;37207;53.060;18.726;2023-06-22T12:32:37;101010.77;;;35.11;31.05
51147;BME280;37207;53.060;18.726;2023-06-22T12:35:04;101004.10;;;35.03;31.15
51147;BME280;37207;53.060;18.726;2023-06-22T12:37:30;100999.59;;;35.05;31.53
51147;BME280;37207;53.060;18.726;2023-06-22T12:39:58;100996.02;;;35.08;31.29
51147;BME280;37207;53.060;18.726;2023-06-22T12:42:24;100995.86;;;35.05;30.85
51147;BME280;37207;53.060;18.726;2023-06-22T12:44:52;100996.80;;;35.07;30.81
51147;BME280;37207;53.060;18.726;2023-06-22T12:47:19;100994.77;;;34.89;29.89